Time;durP1;ratioP1;P1;durP2;ratioP2;P2;SDS_P1;SDS_P2;PMS_P1;PMS_P2;Temp;Humidity;BMP_temperature;BMP_pressure;BME280_temperature;BME280_humidity;BME280_pressure;Samples;Min_cycle;Max_cycle;Signal;HPM_P1;HPM_P2
2022/05/20 00:01:52;;;;;;;8.05;2.95;;;;;;;;;;4499343;77;28509;-77
2022/05/20 00:07:59;;;;;;;6.42;3.10;;;;;;;;;;4504107;77;28518;-77
2022/05/20 00:14:01;;;;;;;8.03;2.85;;;;;;;;;;4490678;77;28546;-77
2022/05/20 00:20:04;;;;;;;6.05;2.65;;;;;;;;;;4503357;77;28510;-76
2022/05/20 00:26:08;;;;;;;5.08;2.35;;;;;;;;;;4521633;77;28537;-77
2022/05/20 00:32:08;;;;;;;5.03;2.85;;;;;;;;;;4520770;77;28485;-77
2022/05/20 00:38:09;;;;;;;5.12;2.80;;;;;;;;;;4511910;77;28464;-77
2022/05/20 00:44:10;;;;;;;4.67;2.35;;;;;;;;;;4508365;77;28575;-84
2022/05/20 00:50:13;;;;;;;5.78;3.05;;;;;;;;;;4513114;77;28502;-84
2022/05/20 00:56:16;;;;;;;8.00;3.17;;;;;;;;;;4515525;77;28505;-82
2022/05/20 01:02:17;;;;;;;5.10;2.67;;;;;;;;;;4496747;77;28471;-83
2022/05/20 01:08:20;;;;;;;3.83;2.67;;;;;;;;;;4514136;77;28587;-83
2022/05/20 01:14:27;;;;;;;9.13;3.40;;;;;;;;;;4514242;77;28542;-82
2022/05/20 01:20:29;;;;;;;5.45;2.67;;;;;;;;;;4419999;78;28584;-82
2022/05/20 01:26:30;;;;;;;4.75;2.77;;;;;;;;;;4349782;80;28527;-82
2022/05/20 01:32:31;;;;;;;6.97;2.25;;;;;;;;;;4416256;79;28492;-81
2022/05/20 01:38:32;;;;;;;8.55;2.55;;;;;;;;;;4357265;79;28478;-82
2022/05/20 01:44:37;;;;;;;4.78;2.47;;;;;;;;;;4381318;79;28540;-83
2022/05/20 01:50:40;;;;;;;7.13;2.77;;;;;;;;;;4391013;79;36632;-83
2022/05/20 01:56:43;;;;;;;6.12;2.72;;;;;;;;;;4411225;78;28585;-83
2022/05/20 02:02:49;;;;;;;4.65;2.40;;;;;;;;;;4308466;80;28560;-83
2022/05/20 02:08:57;;;;;;;4.13;2.70;;;;;;;;;;4341140;80;28522;-83
2022/05/20 02:22:11;;;;;;;7.30;2.70;;;;;;;;;;4347255;80;28558;-83
2022/05/20 02:28:13;;;;;;;4.92;2.55;;;;;;;;;;4354861;80;28539;-84
2022/05/20 02:34:14;;;;;;;4.65;2.35;;;;;;;;;;4353194;80;28518;-84
2022/05/20 02:40:17;;;;;;;5.40;2.72;;;;;;;;;;4355562;80;28534;-83
2022/05/20 02:46:17;;;;;;;11.20;3.30;;;;;;;;;;4339047;80;28531;-83
2022/05/20 02:52:18;;;;;;;6.65;3.20;;;;;;;;;;4365576;80;28524;-82
2022/05/20 03:04:40;;;;;;;7.53;3.37;;;;;;;;;;4536977;77;28578;-83
2022/05/20 03:10:41;;;;;;;4.55;2.72;;;;;;;;;;4533760;77;28546;-83
2022/05/20 03:16:43;;;;;;;7.10;2.80;;;;;;;;;;4522476;77;28513;-84
2022/05/20 03:22:44;;;;;;;6.15;2.67;;;;;;;;;;4531261;77;28603;-83
2022/05/20 03:28:45;;;;;;;4.85;2.75;;;;;;;;;;4534240;77;28493;-84
2022/05/20 03:34:52;;;;;;;6.25;2.75;;;;;;;;;;4541023;77;28479;-84
2022/05/20 03:40:59;;;;;;;6.12;2.80;;;;;;;;;;4543249;77;28500;-85
2022/05/20 03:47:08;;;;;;;5.25;2.87;;;;;;;;;;4542571;77;28494;-84
2022/05/20 03:53:09;;;;;;;5.78;2.75;;;;;;;;;;4519053;77;28588;-84
2022/05/20 03:59:10;;;;;;;7.70;3.58;;;;;;;;;;4526045;77;28525;-83
2022/05/20 04:05:12;;;;;;;6.72;3.22;;;;;;;;;;4506493;77;28545;-83
2022/05/20 04:11:13;;;;;;;6.62;3.80;;;;;;;;;;4528468;77;28454;-83
2022/05/20 04:17:20;;;;;;;9.00;3.90;;;;;;;;;;4515444;77;28497;-82
2022/05/20 04:23:21;;;;;;;9.88;4.25;;;;;;;;;;4512457;77;28554;-82
2022/05/20 04:29:22;;;;;;;10.50;3.65;;;;;;;;;;4515732;77;28518;-78
2022/05/20 04:35:24;;;;;;;8.98;3.90;;;;;;;;;;4516748;77;28544;-81
2022/05/20 04:47:45;;;;;;;10.53;4.20;;;;;;;;;;4511631;77;28532;-81
2022/05/20 05:00:13;;;;;;;8.20;2.98;;;;;;;;;;4519073;77;28530;-84
2022/05/20 05:06:14;;;;;;;4.67;2.22;;;;;;;;;;4531673;77;28530;-81
2022/05/20 05:12:15;;;;;;;5.37;2.12;;;;;;;;;;4531752;77;28584;-81
2022/05/20 05:18:22;;;;;;;4.20;2.22;;;;;;;;;;4543304;77;28470;-83
2022/05/20 05:24:19;;;;;;;6.10;1.82;;;;;;;;;;4523309;77;28522;-82
2022/05/20 05:30:21;;;;;;;7.33;2.02;;;;;;;;;;4524746;77;28529;-83
2022/05/20 05:36:22;;;;;;;4.10;1.60;;;;;;;;;;4508474;77;28457;-82
2022/05/20 05:42:23;;;;;;;4.08;1.85;;;;;;;;;;4491390;77;28526;-81
2022/05/20 05:48:24;;;;;;;8.43;2.22;;;;;;;;;;4519410;77;28454;-80
2022/05/20 05:54:25;;;;;;;5.08;1.80;;;;;;;;;;4518312;77;28527;-82
2022/05/20 06:00:26;;;;;;;4.97;1.98;;;;;;;;;;4510120;77;28477;-82
2022/05/20 06:06:27;;;;;;;3.08;1.95;;;;;;;;;;4500657;77;28490;-83
2022/05/20 06:12:28;;;;;;;5.83;2.47;;;;;;;;;;4518517;77;28514;-85
2022/05/20 06:18:34;;;;;;;10.78;2.30;;;;;;;;;;4526090;77;28555;-84
2022/05/20 06:24:41;;;;;;;6.90;2.40;;;;;;;;;;4525523;77;28530;-85
2022/05/20 06:30:43;;;;;;;6.10;2.52;;;;;;;;;;4525367;77;28570;-84
2022/05/20 06:43:04;;;;;;;7.05;2.65;;;;;;;;;;4517026;77;28516;-83
2022/05/20 06:49:05;;;;;;;6.97;2.42;;;;;;;;;;4522898;77;28495;-84
2022/05/20 06:55:07;;;;;;;8.43;2.75;;;;;;;;;;4516554;77;28534;-85
2022/05/20 07:01:14;;;;;;;5.33;2.20;;;;;;;;;;4520115;77;28459;-82
2022/05/20 07:07:21;;;;;;;4.10;2.00;;;;;;;;;;4525701;77;28659;-84
2022/05/20 07:13:29;;;;;;;5.05;2.25;;;;;;;;;;4522802;77;28521;-84
2022/05/20 07:19:35;;;;;;;6.08;2.83;;;;;;;;;;4494545;77;28494;-84
2022/05/20 07:25:44;;;;;;;6.95;2.55;;;;;;;;;;4520775;77;28467;-84
2022/05/20 07:31:45;;;;;;;6.17;2.80;;;;;;;;;;4422831;78;28497;-83
2022/05/20 07:37:47;;;;;;;7.05;2.42;;;;;;;;;;4413282;79;28551;-84
2022/05/20 07:43:48;;;;;;;5.28;2.35;;;;;;;;;;4319488;79;28518;-79
2022/05/20 07:49:49;;;;;;;5.37;2.50;;;;;;;;;;4307001;80;28598;-79
2022/05/20 07:55:53;;;;;;;5.80;2.60;;;;;;;;;;4360817;80;28681;-79
2022/05/20 08:01:54;;;;;;;6.40;2.40;;;;;;;;;;4316968;80;28508;-79
2022/05/20 08:07:59;;;;;;;7.58;2.52;;;;;;;;;;4410755;78;28505;-79
2022/05/20 08:13:59;;;;;;;5.95;2.67;;;;;;;;;;4338158;80;28517;-79
2022/05/20 08:27:06;;;;;;;5.58;2.30;;;;;;;;;;4433486;78;28586;-78
2022/05/20 08:33:07;;;;;;;6.47;2.37;;;;;;;;;;4351788;80;28451;-78
2022/05/20 08:39:12;;;;;;;7.58;2.00;;;;;;;;;;4345032;80;28489;-78
2022/05/20 08:45:15;;;;;;;8.33;2.20;;;;;;;;;;4336258;80;28516;-78
2022/05/20 08:51:16;;;;;;;5.72;2.02;;;;;;;;;;4367469;80;28527;-77
2022/05/20 08:57:19;;;;;;;3.58;2.08;;;;;;;;;;4394178;78;28510;-78
2022/05/20 09:03:22;;;;;;;3.83;1.80;;;;;;;;;;4399398;78;28447;-79
2022/05/20 09:09:48;;;;;;;6.75;1.92;;;;;;;;;;4400370;78;28526;-78
2022/05/20 09:16:04;;;;;;;7.50;2.50;;;;;;;;;;4423399;78;28505;-79
2022/05/20 09:22:07;;;;;;;3.62;1.72;;;;;;;;;;4421640;78;28658;-78
2022/05/20 09:28:19;;;;;;;4.80;1.77;;;;;;;;;;4425004;78;28485;-78
2022/05/20 09:34:22;;;;;;;5.20;1.92;;;;;;;;;;4433673;78;28512;-79
2022/05/20 09:40:34;;;;;;;4.00;2.08;;;;;;;;;;4412601;78;28522;-79
2022/05/20 09:46:42;;;;;;;5.22;1.62;;;;;;;;;;4430187;78;28450;-81
2022/05/20 09:52:48;;;;;;;5.20;1.70;;;;;;;;;;4431612;78;28480;-82
2022/05/20 10:06:01;;;;;;;7.42;2.10;;;;;;;;;;4415922;78;28630;-82
2022/05/20 10:12:11;;;;;;;2.95;1.62;;;;;;;;;;4422250;79;28608;-81
2022/05/20 10:18:17;;;;;;;5.17;1.82;;;;;;;;;;4415014;78;28560;-85
2022/05/20 10:24:26;;;;;;;3.47;1.60;;;;;;;;;;4450008;78;28561;-85
2022/05/20 10:37:03;;;;;;;2.40;1.50;;;;;;;;;;4388257;79;28547;-82
2022/05/20 10:43:10;;;;;;;5.40;1.90;;;;;;;;;;4390267;79;28520;-83
2022/05/20 10:49:12;;;;;;;2.83;1.40;;;;;;;;;;4339393;79;28459;-82
2022/05/20 10:55:15;;;;;;;4.20;1.70;;;;;;;;;;4416280;79;28550;-83
2022/05/20 11:01:30;;;;;;;4.15;1.70;;;;;;;;;;4430148;79;28521;-82
2022/05/20 11:07:39;;;;;;;3.10;1.75;;;;;;;;;;4421468;79;28513;-82
2022/05/20 11:13:48;;;;;;;2.58;1.52;;;;;;;;;;4426860;79;28534;-84
2022/05/20 11:19:50;;;;;;;2.80;1.75;;;;;;;;;;4404871;79;28537;-84
2022/05/20 11:26:11;;;;;;;6.60;1.62;;;;;;;;;;4399578;79;28559;-83
2022/05/20 11:32:14;;;;;;;3.17;1.80;;;;;;;;;;4425110;79;28478;-83
2022/05/20 11:38:19;;;;;;;1.85;1.50;;;;;;;;;;4428046;79;28525;-85
2022/05/20 11:44:32;;;;;;;4.10;1.52;;;;;;;;;;4426569;79;28505;-80
2022/05/20 11:50:40;;;;;;;5.70;1.75;;;;;;;;;;4415711;79;28517;-80
2022/05/20 11:56:43;;;;;;;4.15;1.62;;;;;;;;;;4464629;77;28553;-81
2022/05/20 12:02:49;;;;;;;3.58;1.52;;;;;;;;;;4477542;78;28492;-81
2022/05/20 12:08:51;;;;;;;2.15;1.42;;;;;;;;;;4472151;78;28516;-79
2022/05/20 12:14:54;;;;;;;4.28;1.60;;;;;;;;;;4469352;79;28498;-80
2022/05/20 12:27:18;;;;;;;3.80;1.57;;;;;;;;;;4475637;78;28532;-80
2022/05/20 12:40:24;;;;;;;;;;;;;;;;;;4429184;78;28504;-80
2022/05/20 12:46:33;;;;;;;3.33;1.47;;;;;;;;;;4478907;78;20271;-80
2022/05/20 12:52:37;;;;;;;2.52;1.60;;;;;;;;;;4431333;78;28527;-80
2022/05/20 12:58:44;;;;;;;2.92;1.30;;;;;;;;;;4484041;77;28549;-80
2022/05/20 13:04:49;;;;;;;5.67;1.40;;;;;;;;;;4471904;77;28531;-80
2022/05/20 13:10:50;;;;;;;3.62;1.45;;;;;;;;;;4499237;77;28523;-80
2022/05/20 13:16:55;;;;;;;2.42;1.20;;;;;;;;;;4488341;77;28519;-80
2022/05/20 13:22:59;;;;;;;2.45;1.40;;;;;;;;;;4487914;77;28525;-80
2022/05/20 13:29:05;;;;;;;3.00;1.40;;;;;;;;;;4508177;77;28566;-80
2022/05/20 13:35:06;;;;;;;2.33;1.40;;;;;;;;;;4483769;77;28550;-80
2022/05/20 13:41:15;;;;;;;3.27;1.50;;;;;;;;;;4485301;77;28550;-80
2022/05/20 13:53:40;;;;;;;2.98;1.37;;;;;;;;;;4493070;77;28530;-83
2022/05/20 13:59:42;;;;;;;3.60;1.30;;;;;;;;;;4499555;77;28570;-83
2022/05/20 14:05:44;;;;;;;3.27;1.40;;;;;;;;;;4517372;77;28506;-82
2022/05/20 14:11:47;;;;;;;3.70;1.55;;;;;;;;;;4506619;77;28483;-82
2022/05/20 14:17:48;;;;;;;4.92;1.57;;;;;;;;;;4505092;77;28518;-83
2022/05/20 14:23:54;;;;;;;3.45;1.50;;;;;;;;;;4520931;77;28544;-84
2022/05/20 14:29:57;;;;;;;5.95;1.75;;;;;;;;;;4507280;77;28514;-84
2022/05/20 14:36:06;;;;;;;4.08;1.57;;;;;;;;;;4504508;78;28479;-84
2022/05/20 14:42:09;;;;;;;3.80;1.80;;;;;;;;;;4489671;77;28457;-83
2022/05/20 14:48:12;;;;;;;2.45;1.57;;;;;;;;;;4506105;77;28477;-83
2022/05/20 14:54:14;;;;;;;6.83;1.60;;;;;;;;;;4500758;77;28612;-83
2022/05/20 15:00:24;;;;;;;4.60;1.85;;;;;;;;;;4495748;77;28526;-80
2022/05/20 15:06:28;;;;;;;4.78;1.70;;;;;;;;;;4505444;77;28486;-82
2022/05/20 15:12:36;;;;;;;5.60;2.15;;;;;;;;;;4511086;77;28607;-82
2022/05/20 15:18:44;;;;;;;3.77;1.75;;;;;;;;;;4485655;78;28551;-83
2022/05/20 15:24:47;;;;;;;3.10;1.57;;;;;;;;;;4505531;77;28526;-82
2022/05/20 15:34:51;;;;;;;5.55;1.92;;;;;;;;;;4497127;78;28475;-82
2022/05/20 15:37:06;;;;;;;4.20;2.05;;;;;;;;;;4494408;77;28993;-83
2022/05/20 15:43:07;;;;;;;3.77;1.72;;;;;;;;;;4503143;77;28513;-83
2022/05/20 15:49:08;;;;;;;2.58;1.77;;;;;;;;;;4489417;77;28987;-82
2022/05/20 15:55:20;;;;;;;3.60;1.90;;;;;;;;;;4502069;78;28557;-84
2022/05/20 16:01:22;;;;;;;3.10;1.77;;;;;;;;;;4449810;78;28550;-81
2022/05/20 16:07:22;;;;;;;4.53;1.80;;;;;;;;;;4447304;78;28491;-83
2022/05/20 16:13:30;;;;;;;2.22;1.75;;;;;;;;;;4460041;78;28516;-84
2022/05/20 16:19:31;;;;;;;3.58;1.60;;;;;;;;;;4429541;78;28509;-84
2022/05/20 16:25:32;;;;;;;3.33;1.60;;;;;;;;;;4488546;78;28550;-85
2022/05/20 16:31:39;;;;;;;2.40;1.50;;;;;;;;;;4487826;78;28518;-81
2022/05/20 16:37:48;;;;;;;1.77;1.32;;;;;;;;;;4484822;78;28503;-81
2022/05/20 16:43:49;;;;;;;2.83;1.87;;;;;;;;;;4486842;78;28516;-81
2022/05/20 16:49:50;;;;;;;2.52;1.80;;;;;;;;;;4437281;78;28480;-80
2022/05/20 16:55:51;;;;;;;2.22;1.60;;;;;;;;;;4434568;78;28543;-81
2022/05/20 17:01:52;;;;;;;2.90;1.60;;;;;;;;;;4479333;77;28504;-81
2022/05/20 17:07:53;;;;;;;3.47;1.60;;;;;;;;;;4500566;78;28565;-81
2022/05/20 17:13:57;;;;;;;3.35;1.30;;;;;;;;;;4508013;77;28479;-80
2022/05/20 17:20:03;;;;;;;4.05;1.90;;;;;;;;;;4513990;77;28573;-80
2022/05/20 17:26:05;;;;;;;6.03;1.87;;;;;;;;;;4514956;77;28512;-80
2022/05/20 17:32:12;;;;;;;4.45;1.65;;;;;;;;;;4514972;77;28495;-81
2022/05/20 17:38:13;;;;;;;3.65;1.67;;;;;;;;;;4496632;77;28529;-81
2022/05/20 17:44:19;;;;;;;7.20;2.05;;;;;;;;;;4510385;77;28461;-80
2022/05/20 17:50:20;;;;;;;3.72;2.00;;;;;;;;;;4490028;77;28501;-81
2022/05/20 17:56:22;;;;;;;4.97;2.10;;;;;;;;;;4494102;77;28507;-81
2022/05/20 18:02:23;;;;;;;4.72;2.00;;;;;;;;;;4514227;77;28518;-81
2022/05/20 18:08:30;;;;;;;9.53;2.40;;;;;;;;;;4497445;77;28493;-81
2022/05/20 18:14:32;;;;;;;7.75;2.65;;;;;;;;;;4512643;77;28561;-81
2022/05/20 18:20:39;;;;;;;6.05;2.40;;;;;;;;;;4507286;77;28506;-81
2022/05/20 18:26:40;;;;;;;5.25;2.15;;;;;;;;;;4513515;77;28517;-79
2022/05/20 18:32:41;;;;;;;7.05;2.35;;;;;;;;;;4512195;77;28562;-80
2022/05/20 18:45:03;;;;;;;4.08;2.52;;;;;;;;;;4495889;77;28516;-82
2022/05/20 18:51:04;;;;;;;9.20;2.92;;;;;;;;;;4510323;77;28510;-80
2022/05/20 18:57:05;;;;;;;4.55;2.47;;;;;;;;;;4485707;77;28464;-79
2022/05/20 19:09:25;;;;;;;9.03;3.42;;;;;;;;;;4486291;77;28510;-78
2022/05/20 19:15:26;;;;;;;11.78;5.58;;;;;;;;;;4489449;77;28503;-81
2022/05/20 19:21:33;;;;;;;13.32;7.25;;;;;;;;;;4510131;77;28643;-83
2022/05/20 19:27:34;;;;;;;8.23;4.92;;;;;;;;;;4489138;77;28532;-80
2022/05/20 19:33:35;;;;;;;8.58;4.33;;;;;;;;;;4489062;77;28564;-77
2022/05/20 19:39:42;;;;;;;9.93;5.40;;;;;;;;;;4501389;78;28503;-79
2022/05/20 19:45:49;;;;;;;10.60;4.90;;;;;;;;;;4506212;77;28556;-79
2022/05/20 19:51:51;;;;;;;;;;;;;;;;;;4514712;77;28462;-82
2022/05/20 20:04:11;;;;;;;8.55;3.98;;;;;;;;;;4467321;77;28554;-80
2022/05/20 20:10:18;;;;;;;5.55;3.70;;;;;;;;;;4510728;77;28428;-81
2022/05/20 20:16:19;;;;;;;6.10;4.17;;;;;;;;;;4496279;77;28540;-79
2022/05/20 20:28:42;;;;;;;7.35;4.50;;;;;;;;;;4504398;77;28542;-81
2022/05/20 20:34:51;;;;;;;6.92;4.03;;;;;;;;;;4504578;77;28560;-80
2022/05/20 20:40:58;;;;;;;8.30;3.92;;;;;;;;;;4506694;77;28538;-80
2022/05/20 20:46:59;;;;;;;10.55;4.60;;;;;;;;;;4498635;77;29537;-81
2022/05/20 20:53:01;;;;;;;12.43;4.45;;;;;;;;;;4474121;77;28531;-81
2022/05/20 20:59:02;;;;;;;9.93;4.28;;;;;;;;;;4504006;77;28520;-81
2022/05/20 21:05:04;;;;;;;9.60;4.55;;;;;;;;;;4491285;77;28526;-81
2022/05/20 21:11:05;;;;;;;10.35;5.00;;;;;;;;;;4509040;78;28540;-81
2022/05/20 21:17:12;;;;;;;6.78;4.35;;;;;;;;;;4487273;77;28526;-80
2022/05/20 21:23:14;;;;;;;7.60;4.78;;;;;;;;;;4496035;77;28529;-80
2022/05/20 21:29:15;;;;;;;7.65;4.30;;;;;;;;;;4529853;77;28446;-80
2022/05/20 21:35:16;;;;;;;8.10;4.95;;;;;;;;;;4499007;77;28506;-80
2022/05/20 21:41:20;;;;;;;8.30;4.72;;;;;;;;;;4467001;77;28545;-80
2022/05/20 21:47:22;;;;;;;7.28;4.95;;;;;;;;;;4473260;77;28569;-81
2022/05/20 21:53:23;;;;;;;6.97;4.33;;;;;;;;;;4480845;77;28529;-81
2022/05/20 21:59:24;;;;;;;8.50;5.25;;;;;;;;;;4473701;77;28490;-81
2022/05/20 22:11:55;;;;;;;7.47;5.28;;;;;;;;;;4455857;78;28513;-80
2022/05/20 22:17:56;;;;;;;8.55;4.70;;;;;;;;;;4440578;78;28566;-79
2022/05/20 22:24:03;;;;;;;10.63;4.80;;;;;;;;;;4427723;78;28529;-79
2022/05/20 22:30:10;;;;;;;7.15;4.50;;;;;;;;;;4465062;79;28620;-79
2022/05/20 22:36:11;;;;;;;6.28;3.83;;;;;;;;;;4456338;78;28529;-78
2022/05/20 22:42:13;;;;;;;5.60;3.87;;;;;;;;;;4468166;78;28531;-79
2022/05/20 22:48:14;;;;;;;4.85;3.52;;;;;;;;;;4457999;78;28541;-79
2022/05/20 22:54:15;;;;;;;6.33;3.30;;;;;;;;;;4480381;79;28505;-79
2022/05/20 23:00:21;;;;;;;6.08;3.33;;;;;;;;;;4503757;77;28501;-79
2022/05/20 23:06:22;;;;;;;;;;;;;;;;;;4510420;77;28527;-80
2022/05/20 23:12:23;;;;;;;5.83;2.70;;;;;;;;;;4494706;77;20553;-79
2022/05/20 23:18:24;;;;;;;6.00;3.12;;;;;;;;;;4507663;77;28518;-79
2022/05/20 23:24:25;;;;;;;3.70;2.62;;;;;;;;;;4512853;77;28513;-81
2022/05/20 23:30:26;;;;;;;6.20;2.90;;;;;;;;;;4508888;77;28552;-81
2022/05/20 23:36:38;;;;;;;4.60;2.77;;;;;;;;;;4511645;77;28487;-80
2022/05/20 23:42:39;;;;;;;3.77;2.67;;;;;;;;;;4504614;77;28506;-81
2022/05/20 23:48:39;;;;;;;6.75;3.92;;;;;;;;;;4503547;77;28534;-82
